»·PEaware :: N418NX KGPI-KJAC

N418NX :: KGPI-KJAC

FLIGHT INFORMATION

Flight Status: Arrived
Operator: Privately registered:
United States
More flights under this callsign
Pilot: Anonymous 1753 (1753)
Aircraft: CANADAIR CL-600 CHALLENGER
(CL60)
More flights by this aircraft type
Origin: KGPI Glacier Park Intl
United States
Destination: KJAC Jackson Hole
United States
More flights between these airports :: More routes between these airports
Route: RIDDG1 SKOTT HIA DNW
File this flight plan on PilotEdge
Remarks: RMK / HI NEW COPILOT
Altitude:
(Current/Filed)
41,000ft
Speed:
(Current/Filed)
459kts
Departed: 08-Nov-23 05:21 PM
Arrived: 08-Nov-23 06:27 PM
Distance/Time
Traveled:
318nm/1:06
Distance/Time
To Go:
Arrived

Flight Plot

Page will automatically refresh every two minutes.

Flight plan parsing failed; only flown route is shown


Map Options




Map Legend


Flown Route
Filed Route
Departure Airport
Arrival Airport
Navaid (VOR, NDB)
Fix

Horizontal Profiles

Position Reports

Time Latitude Longitude Heading Altitude Ground
Speed
08-Nov-23 16:10 48.308033 -114.253095 125 2970ft 0kts
08-Nov-23 16:11 48.308033 -114.253095 125 2970ft 0kts
08-Nov-23 16:12 48.308033 -114.253095 125 2970ft 0kts
08-Nov-23 16:13 48.308033 -114.253095 125 2970ft 0kts
08-Nov-23 16:14 48.308033 -114.253095 125 2970ft 0kts
08-Nov-23 16:15 48.308033 -114.253095 125 2970ft 0kts
08-Nov-23 16:16 48.308033 -114.253095 125 2970ft 0kts
08-Nov-23 16:17 48.308033 -114.253095 125 2970ft 0kts
08-Nov-23 16:18 48.308033 -114.253095 125 2970ft 0kts
08-Nov-23 16:19 48.308033 -114.253095 125 2970ft 0kts
08-Nov-23 16:20 48.308033 -114.253095 125 2970ft 0kts
08-Nov-23 16:20 48.308033 -114.253095 125 2970ft 0kts
08-Nov-23 16:21 48.308033 -114.253095 125 2970ft 0kts
08-Nov-23 16:23 48.308033 -114.253095 125 2970ft 0kts
08-Nov-23 16:24 48.308033 -114.253095 125 2970ft 0kts
08-Nov-23 16:25 48.308033 -114.253095 125 2970ft 0kts
08-Nov-23 16:25 48.308033 -114.253095 125 2970ft 0kts
08-Nov-23 16:26 48.308033 -114.253095 125 2970ft 0kts
08-Nov-23 16:27 48.308033 -114.253095 125 2970ft 0kts
08-Nov-23 16:29 48.308033 -114.253095 125 2970ft 0kts
08-Nov-23 16:29 48.308033 -114.253095 125 2970ft 0kts
08-Nov-23 16:30 48.308033 -114.253095 125 2970ft 0kts
08-Nov-23 16:31 48.308033 -114.253095 125 2970ft 0kts
08-Nov-23 16:32 48.308033 -114.253095 125 2970ft 0kts
08-Nov-23 16:33 48.308033 -114.253095 125 2970ft 0kts
08-Nov-23 16:34 48.308033 -114.253095 125 2970ft 0kts
08-Nov-23 16:35 48.308033 -114.253095 125 2970ft 0kts
08-Nov-23 16:36 48.308033 -114.253095 125 2970ft 0kts
08-Nov-23 16:37 48.308033 -114.253095 125 2970ft 0kts
08-Nov-23 16:38 48.308033 -114.253095 125 2970ft 0kts
08-Nov-23 16:39 48.308033 -114.253095 125 2970ft 0kts
08-Nov-23 16:40 48.308033 -114.253095 125 2970ft 0kts
08-Nov-23 16:41 48.308033 -114.253095 125 2970ft 0kts
08-Nov-23 16:42 48.308033 -114.253095 125 2970ft 0kts
08-Nov-23 16:43 48.308033 -114.253095 125 2970ft 0kts
08-Nov-23 16:44 48.308033 -114.253095 125 2970ft 0kts
08-Nov-23 16:45 48.308033 -114.253095 125 2970ft 0kts
08-Nov-23 16:46 48.308033 -114.253095 125 2970ft 0kts
08-Nov-23 16:47 48.308033 -114.253095 125 2970ft 0kts
08-Nov-23 16:48 48.308034 -114.253095 125 2970ft 0kts
08-Nov-23 16:49 48.308034 -114.253095 125 2970ft 0kts
08-Nov-23 16:50 48.308034 -114.253095 125 2970ft 0kts
08-Nov-23 16:51 48.308034 -114.253095 125 2970ft 0kts
08-Nov-23 16:52 48.308034 -114.253095 125 2970ft 0kts
08-Nov-23 16:53 48.308034 -114.253095 125 2970ft 0kts
08-Nov-23 16:54 48.308034 -114.253095 125 2970ft 0kts
08-Nov-23 16:55 48.308034 -114.253095 125 2970ft 0kts
08-Nov-23 16:56 48.308034 -114.253095 125 2970ft 0kts
08-Nov-23 16:57 48.308034 -114.253095 125 2970ft 0kts
08-Nov-23 16:58 48.308034 -114.253095 125 2970ft 0kts
08-Nov-23 16:59 48.308034 -114.253095 125 2970ft 0kts
08-Nov-23 17:00 48.308034 -114.253095 125 2970ft 0kts
08-Nov-23 17:01 48.308034 -114.253095 125 2970ft 0kts
08-Nov-23 17:02 48.308034 -114.253095 125 2970ft 0kts
08-Nov-23 17:03 48.308034 -114.253095 125 2970ft 0kts
08-Nov-23 17:04 48.308034 -114.253095 125 2970ft 0kts
08-Nov-23 17:05 48.308034 -114.253095 125 2970ft 0kts
08-Nov-23 17:06 48.308034 -114.253095 125 2970ft 0kts
08-Nov-23 17:07 48.308034 -114.253095 125 2970ft 0kts
08-Nov-23 17:08 48.308033 -114.253095 125 2970ft 0kts
08-Nov-23 17:09 48.308033 -114.253095 125 2970ft 0kts
08-Nov-23 17:10 48.308033 -114.253095 125 2970ft 0kts
08-Nov-23 17:11 48.308033 -114.253095 125 2970ft 0kts
08-Nov-23 17:12 48.308033 -114.253095 125 2970ft 0kts
08-Nov-23 17:13 48.308033 -114.253095 125 2970ft 0kts
08-Nov-23 17:14 48.308033 -114.253095 125 2970ft 0kts
08-Nov-23 17:15 48.308095 -114.252969 347 2970ft 4kts
08-Nov-23 17:16 48.310858 -114.253008 30 2972ft 13kts
08-Nov-23 17:17 48.314566 -114.249138 35 2975ft 20kts
08-Nov-23 17:18 48.318331 -114.245535 345 2977ft 0kts
08-Nov-23 17:19 48.318495 -114.245661 319 2977ft 8kts
08-Nov-23 17:20 48.314286 -114.251504 216 2974ft 139kts
08-Nov-23 17:21 48.282673 -114.308094 246 8750ft 194kts
08-Nov-23 17:22 48.253234 -114.390718 245 10378ft 237kts
08-Nov-23 17:23 48.209853 -114.473158 227 10369ft 266kts
08-Nov-23 17:24 48.169297 -114.559905 256 10693ft 255kts
08-Nov-23 17:25 48.143180 -114.661957 237 11919ft 285kts
08-Nov-23 17:26 48.064612 -114.672877 160 16050ft 325kts
08-Nov-23 17:27 47.977129 -114.624217 163 19200ft 344kts
08-Nov-23 17:28 47.884562 -114.576151 163 21307ft 363kts
08-Nov-23 17:29 47.808752 -114.486509 109 22471ft 381kts
08-Nov-23 17:30 47.768149 -114.338005 108 24976ft 395kts
08-Nov-23 17:31 47.721710 -114.174611 118 25194ft 457kts
08-Nov-23 17:32 47.626047 -114.043577 142 26328ft 477kts
08-Nov-23 17:33 47.517771 -113.923226 141 27892ft 500kts
08-Nov-23 17:34 47.403491 -113.797513 141 29440ft 518kts
08-Nov-23 17:35 47.286442 -113.669721 141 30715ft 528kts
08-Nov-23 17:36 47.166640 -113.539908 142 31637ft 537kts
08-Nov-23 17:37 47.046498 -113.410534 141 32815ft 535kts
08-Nov-23 17:38 46.927335 -113.282654 143 34813ft 515kts
08-Nov-23 17:39 46.812384 -113.159810 144 36491ft 506kts
08-Nov-23 17:40 46.698916 -113.039297 144 37702ft 504kts
08-Nov-23 17:41 46.585761 -112.919762 145 38780ft 501kts
08-Nov-23 17:42 46.473018 -112.801353 146 39751ft 497kts
08-Nov-23 17:43 46.360963 -112.684285 146 40497ft 495kts
08-Nov-23 17:44 46.249602 -112.568553 146 41110ft 493kts
08-Nov-23 17:45 46.137641 -112.452837 147 41273ft 498kts
08-Nov-23 17:46 46.023671 -112.335651 147 41237ft 508kts
08-Nov-23 17:47 45.908011 -112.217331 147 41210ft 511kts
08-Nov-23 17:48 45.790973 -112.103280 150 40862ft 506kts
08-Nov-23 17:49 45.675303 -111.995151 149 38846ft 486kts
08-Nov-23 17:50 45.563428 -111.891038 148 36879ft 472kts
08-Nov-23 17:51 45.454188 -111.789986 146 34447ft 474kts
08-Nov-23 17:52 45.344846 -111.689113 145 32335ft 463kts
08-Nov-23 17:53 45.237684 -111.590601 145 30255ft 452kts
08-Nov-23 17:54 45.131941 -111.493917 146 28257ft 461kts
08-Nov-23 17:55 45.025305 -111.396623 146 26347ft 447kts
08-Nov-23 17:56 44.923260 -111.303966 147 24500ft 423kts
08-Nov-23 17:57 44.827230 -111.217250 148 23055ft 393kts
08-Nov-23 17:58 44.735884 -111.135076 148 21334ft 380kts
08-Nov-23 17:59 44.649779 -111.057835 148 19898ft 353kts
08-Nov-23 18:00 44.568168 -110.985008 149 18288ft 340kts
08-Nov-23 18:01 44.489680 -110.915196 149 16898ft 322kts
08-Nov-23 18:02 44.416897 -110.850552 149 16457ft 300kts
08-Nov-23 18:03 44.346037 -110.787945 149 15093ft 298kts
08-Nov-23 18:04 44.276717 -110.726778 149 13944ft 288kts
08-Nov-23 18:05 44.208192 -110.666539 149 13895ft 290kts
08-Nov-23 18:06 44.136800 -110.615166 171 13899ft 285kts
08-Nov-23 18:07 44.058602 -110.590812 170 13899ft 286kts
08-Nov-23 18:08 43.978546 -110.566110 170 13905ft 295kts
08-Nov-23 18:09 43.901535 -110.546725 196 13891ft 264kts
08-Nov-23 18:10 43.833254 -110.572788 200 12686ft 250kts
08-Nov-23 18:11 43.767187 -110.599260 201 11389ft 240kts
08-Nov-23 18:12 43.703102 -110.624469 199 11015ft 247kts
08-Nov-23 18:13 43.629526 -110.622238 150 12962ft 288kts
08-Nov-23 18:14 43.561757 -110.563903 146 12940ft 284kts
08-Nov-23 18:15 43.555293 -110.462610 42 12905ft 305kts
08-Nov-23 18:16 43.631639 -110.423104 11 12941ft 291kts
08-Nov-23 18:17 43.708680 -110.389673 13 12942ft 289kts
08-Nov-23 18:18 43.785887 -110.360389 349 12923ft 279kts
08-Nov-23 18:19 43.821404 -110.436722 267 12523ft 254kts
08-Nov-23 18:20 43.813867 -110.531427 258 11445ft 240kts
08-Nov-23 18:21 43.787084 -110.612504 242 10232ft 222kts
08-Nov-23 18:22 43.739417 -110.668650 216 9039ft 229kts
08-Nov-23 18:23 43.684848 -110.700064 202 7940ft 181kts
08-Nov-23 18:24 43.644381 -110.719840 203 7092ft 144kts
08-Nov-23 18:25 43.608221 -110.737429 202 6434ft 104kts
08-Nov-23 18:26 43.599486 -110.740567 114 6416ft 3kts
08-Nov-23 18:27 43.599038 -110.739274 21 6418ft 0kts
08-Nov-23 18:28 43.599038 -110.739274 21 6418ft 0kts
08-Nov-23 18:29 43.599837 -110.738405 113 6419ft 0kts
08-Nov-23 18:30 43.599838 -110.738406 113 6419ft 0kts
08-Nov-23 18:31 43.599838 -110.738406 113 6419ft 0kts
08-Nov-23 18:32 43.599838 -110.738406 113 6419ft 0kts
08-Nov-23 18:33 43.599838 -110.738406 113 6419ft 0kts
08-Nov-23 18:34 43.599838 -110.738406 113 6419ft 0kts

Navigation Log

Ident Type
Flight plan parsing failed, navigation log unavailable